Time;durP1;ratioP1;P1;durP2;ratioP2;P2;SDS_P1;SDS_P2;PMS_P1;PMS_P2;Temp;Humidity;BMP_temperature;BMP_pressure;BME280_temperature;BME280_humidity;BME280_pressure;Samples;Min_cycle;Max_cycle;Signal;HPM_P1;HPM_P2
2022/04/10 00:00:36;;;;;;;6.47;3.90;;;4.30;87.70;;;;;;5032580;28;20559;-79
2022/04/10 00:03:03;;;;;;;7.03;4.35;;;4.40;87.70;;;;;;5036083;28;20424;-78
2022/04/10 00:05:28;;;;;;;7.10;4.53;;;4.30;87.40;;;;;;5033439;28;20215;-78
2022/04/10 00:07:54;;;;;;;7.40;3.97;;;4.30;87.10;;;;;;5036725;28;20790;-79
2022/04/10 00:10:20;;;;;;;10.50;3.90;;;4.20;87.70;;;;;;5036862;28;20192;-79
2022/04/10 00:12:46;;;;;;;7.37;4.70;;;4.10;88.00;;;;;;5035063;28;20185;-77
2022/04/10 00:15:12;;;;;;;6.20;4.23;;;4.10;88.10;;;;;;5038836;28;20482;-79
2022/04/10 00:17:39;;;;;;;7.43;4.00;;;4.20;87.80;;;;;;5037117;28;20626;-79
2022/04/10 00:20:05;;;;;;;8.15;4.90;;;4.20;87.10;;;;;;5038089;28;20542;-79
2022/04/10 00:22:31;;;;;;;8.13;4.60;;;4.30;87.00;;;;;;5030921;28;20299;-79
2022/04/10 00:24:57;;;;;;;9.30;4.53;;;4.30;87.00;;;;;;5032917;28;20482;-79
2022/04/10 00:27:23;;;;;;;8.37;3.90;;;4.20;87.00;;;;;;5047399;28;20177;-79
2022/04/10 00:29:48;;;;;;;8.70;4.50;;;4.10;87.30;;;;;;5036314;28;20404;-78
2022/04/10 00:32:14;;;;;;;7.57;4.33;;;4.00;87.70;;;;;;5039117;28;20714;-79
2022/04/10 00:34:40;;;;;;;9.53;4.03;;;4.10;87.70;;;;;;5038596;28;20205;-79
2022/04/10 00:37:05;;;;;;;8.03;4.40;;;4.00;87.70;;;;;;5036114;28;20711;-79
2022/04/10 00:39:31;;;;;;;9.73;4.87;;;3.90;87.70;;;;;;5034597;28;20550;-79
2022/04/10 00:41:57;;;;;;;9.30;4.43;;;3.90;87.70;;;;;;5038733;28;20180;-78
2022/04/10 00:44:23;;;;;;;6.93;4.20;;;3.90;87.40;;;;;;5034477;28;20184;-79
2022/04/10 00:46:50;;;;;;;7.57;4.20;;;4.00;87.40;;;;;;5034637;28;20189;-78
2022/04/10 00:49:16;;;;;;;7.20;4.07;;;4.00;87.10;;;;;;5037698;28;20245;-78
2022/04/10 00:51:46;;;;;;;10.80;3.93;;;4.00;86.90;;;;;;5041052;28;20483;-79
2022/04/10 00:54:30;;;;;;;5.17;3.93;;;4.00;86.90;;;;;;5038091;28;20280;-79
2022/04/10 00:56:58;;;;;;;7.00;4.30;;;4.00;86.90;;;;;;5029660;28;20463;-79
2022/04/10 00:59:25;;;;;;;6.40;3.93;;;4.00;86.90;;;;;;5035440;28;20485;-78
2022/04/10 01:01:51;;;;;;;9.80;4.27;;;4.00;86.90;;;;;;5038268;28;20554;-80
2022/04/10 01:04:16;;;;;;;7.30;4.40;;;4.00;86.90;;;;;;5042757;28;20550;-79
2022/04/10 01:06:43;;;;;;;9.00;4.20;;;4.00;87.00;;;;;;5046102;28;20174;-78
2022/04/10 01:09:09;;;;;;;7.53;4.40;;;4.00;87.10;;;;;;5040847;28;20260;-78
2022/04/10 01:11:36;;;;;;;6.93;3.90;;;4.00;87.10;;;;;;5040421;28;20463;-77
2022/04/10 01:14:04;;;;;;;9.90;4.38;;;4.00;87.30;;;;;;5033869;28;20570;-78
2022/04/10 01:16:31;;;;;;;10.00;4.50;;;4.00;87.40;;;;;;5033873;28;20276;-78
2022/04/10 01:18:57;;;;;;;6.70;4.20;;;3.90;87.40;;;;;;5033665;28;20416;-79
2022/04/10 01:21:25;;;;;;;8.00;4.40;;;3.90;87.70;;;;;;5033482;28;20439;-77
2022/04/10 01:23:55;;;;;;;6.97;4.53;;;3.90;87.80;;;;;;5037634;28;20420;-77
2022/04/10 01:26:23;;;;;;;9.17;4.73;;;3.80;88.00;;;;;;5042195;28;20443;-76
2022/04/10 01:29:02;;;;;;;7.70;3.70;;;3.90;88.00;;;;;;5033417;28;20423;-78
2022/04/10 01:31:29;;;;;;;8.47;3.90;;;3.90;87.80;;;;;;5034877;28;20424;-79
2022/04/10 01:33:57;;;;;;;8.70;4.53;;;3.90;87.70;;;;;;5032757;28;20923;-78
2022/04/10 01:36:25;;;;;;;6.00;4.17;;;3.90;87.70;;;;;;5032472;28;20560;-80
2022/04/10 01:38:58;;;;;;;7.30;4.00;;;3.90;87.80;;;;;;5038270;28;20420;-77
2022/04/10 01:41:25;;;;;;;9.30;4.30;;;3.90;87.70;;;;;;5034224;28;20271;-78
2022/04/10 01:43:53;;;;;;;6.03;4.03;;;3.90;87.80;;;;;;5032119;28;21005;-78
2022/04/10 01:46:20;;;;;;;10.03;5.40;;;4.00;87.80;;;;;;5036724;28;20439;-77
2022/04/10 01:48:46;;;;;;;10.67;4.27;;;4.00;87.70;;;;;;5041723;28;20759;-79
2022/04/10 01:51:12;;;;;;;6.00;3.60;;;4.00;87.60;;;;;;5042959;28;20447;-78
2022/04/10 01:53:38;;;;;;;8.77;5.27;;;4.00;87.30;;;;;;5042614;28;20416;-78
2022/04/10 01:56:05;;;;;;;9.73;4.53;;;4.00;87.30;;;;;;5041183;28;20463;-79
2022/04/10 01:58:33;;;;;;;6.90;4.20;;;4.00;87.30;;;;;;5036898;28;20420;-77
2022/04/10 02:01:04;;;;;;;8.40;3.70;;;4.00;87.30;;;;;;5037204;28;20427;-78
2022/04/10 02:03:30;;;;;;;7.83;4.13;;;4.00;87.30;;;;;;5036299;28;20438;-78
2022/04/10 02:05:57;;;;;;;7.03;3.90;;;4.00;87.40;;;;;;5039732;28;20434;-77
2022/04/10 02:08:24;;;;;;;10.53;4.63;;;3.90;87.60;;;;;;5038044;28;20432;-77
2022/04/10 02:10:50;;;;;;;7.90;3.83;;;3.90;87.70;;;;;;5038626;28;20431;-78
2022/04/10 02:13:16;;;;;;;10.07;4.33;;;3.90;87.80;;;;;;5039655;28;20432;-78
2022/04/10 02:15:42;;;;;;;7.53;4.20;;;3.90;87.80;;;;;;5045404;28;20469;-78
2022/04/10 02:18:07;;;;;;;8.30;4.53;;;3.90;87.80;;;;;;5045893;28;20177;-79
2022/04/10 02:20:33;;;;;;;7.97;4.73;;;3.90;87.80;;;;;;5042111;28;20549;-77
2022/04/10 02:22:59;;;;;;;5.93;3.67;;;3.90;88.00;;;;;;5043154;28;20181;-78
2022/04/10 02:25:25;;;;;;;8.73;4.10;;;3.90;88.00;;;;;;5041493;28;20211;-78
2022/04/10 02:27:51;;;;;;;8.13;4.17;;;3.90;88.10;;;;;;5049036;28;20934;-78
2022/04/10 02:30:18;;;;;;;9.33;4.00;;;3.80;88.30;;;;;;5039516;28;20436;-79
2022/04/10 02:32:44;;;;;;;7.27;4.40;;;3.80;88.40;;;;;;5040165;28;20195;-78
2022/04/10 02:35:10;;;;;;;13.27;5.00;;;3.80;88.10;;;;;;5043231;28;20909;-79
2022/04/10 02:37:36;;;;;;;11.23;5.23;;;3.80;88.30;;;;;;5035930;28;20459;-78
2022/04/10 02:40:07;;;;;;;9.97;4.50;;;3.80;88.40;;;;;;5037050;28;20436;-78
2022/04/10 02:42:34;;;;;;;9.40;5.20;;;3.70;88.60;;;;;;5042553;28;20506;-78
2022/04/10 02:45:01;;;;;;;6.83;4.20;;;3.70;88.70;;;;;;5035834;28;20439;-78
2022/04/10 02:47:27;;;;;;;7.40;5.10;;;3.70;88.70;;;;;;5043226;28;20870;-78
2022/04/10 02:49:52;;;;;;;7.13;4.60;;;3.70;88.60;;;;;;5038824;28;20462;-78
2022/04/10 02:52:18;;;;;;;7.70;4.60;;;3.60;88.90;;;;;;5058931;28;20704;-78
2022/04/10 02:54:44;;;;;;;8.07;4.50;;;3.60;89.00;;;;;;5044372;28;20293;-79
2022/04/10 02:57:10;;;;;;;10.80;4.53;;;3.50;89.30;;;;;;5042996;28;20209;-79
2022/04/10 02:59:37;;;;;;;6.13;4.50;;;3.50;89.50;;;;;;5046183;28;20656;-78
2022/04/10 03:02:03;;;;;;;8.03;5.37;;;3.50;89.60;;;;;;5043891;28;20439;-78
2022/04/10 03:04:28;;;;;;;7.83;4.60;;;3.50;89.70;;;;;;5039442;28;20432;-79
2022/04/10 03:06:54;;;;;;;7.63;5.00;;;3.40;89.70;;;;;;5039051;28;20462;-79
2022/04/10 03:09:20;;;;;;;9.13;4.60;;;3.40;89.90;;;;;;5048426;28;20204;-78
2022/04/10 03:11:45;;;;;;;7.33;4.80;;;3.40;90.10;;;;;;5038132;28;20188;-80
2022/04/10 03:14:11;;;;;;;9.20;4.90;;;3.30;90.10;;;;;;5040582;28;20189;-79
2022/04/10 03:16:37;;;;;;;10.73;5.93;;;3.30;90.20;;;;;;5039236;28;20217;-79
2022/04/10 03:19:03;;;;;;;13.00;4.83;;;3.30;90.30;;;;;;5037492;28;20181;-78
2022/04/10 03:21:29;;;;;;;8.73;5.43;;;3.30;90.30;;;;;;5036653;28;20788;-79
2022/04/10 03:23:55;;;;;;;9.93;5.57;;;3.20;90.30;;;;;;5036877;28;20416;-78
2022/04/10 03:26:21;;;;;;;6.97;5.27;;;3.20;90.40;;;;;;5034340;28;20705;-79
2022/04/10 03:28:47;;;;;;;7.83;4.57;;;3.20;90.40;;;;;;5038205;28;20474;-78
2022/04/10 03:31:12;;;;;;;9.63;4.60;;;3.20;90.30;;;;;;5035170;28;20261;-79
2022/04/10 03:33:38;;;;;;;10.83;5.70;;;3.20;90.30;;;;;;5038619;28;20916;-78
2022/04/10 03:36:05;;;;;;;9.53;5.13;;;3.10;90.40;;;;;;5039429;28;20261;-78
2022/04/10 03:38:31;;;;;;;9.20;4.93;;;3.10;90.50;;;;;;5035751;28;20169;-78
2022/04/10 03:40:57;;;;;;;13.10;5.90;;;3.10;90.50;;;;;;5034581;28;20917;-79
2022/04/10 03:43:23;;;;;;;9.07;5.20;;;3.10;90.50;;;;;;5032779;28;20420;-79
2022/04/10 03:45:49;;;;;;;11.10;5.82;;;3.10;90.60;;;;;;5034134;28;20573;-78
2022/04/10 03:48:15;;;;;;;10.33;5.57;;;3.10;90.50;;;;;;5042439;28;20177;-79
2022/04/10 03:50:40;;;;;;;10.33;5.70;;;3.10;90.50;;;;;;5033207;28;20208;-77
2022/04/10 03:53:06;;;;;;;9.67;5.03;;;3.00;90.50;;;;;;5042369;28;20192;-78
2022/04/10 03:55:35;;;;;;;9.63;5.27;;;3.00;90.60;;;;;;5040226;28;20197;-77
2022/04/10 03:58:01;;;;;;;11.80;5.90;;;3.00;90.60;;;;;;5037802;28;20181;-78
2022/04/10 04:00:27;;;;;;;8.60;5.33;;;3.00;90.60;;;;;;5040798;28;20419;-77
2022/04/10 04:02:52;;;;;;;7.67;5.60;;;2.90;90.50;;;;;;5039417;28;20183;-79
2022/04/10 04:05:18;;;;;;;9.70;5.93;;;2.90;90.70;;;;;;5036868;28;20451;-79
2022/04/10 04:07:44;;;;;;;10.73;6.77;;;2.90;90.60;;;;;;5040273;28;20184;-78
2022/04/10 04:10:10;;;;;;;11.67;6.60;;;2.90;90.70;;;;;;5039549;28;20185;-77
2022/04/10 04:12:36;;;;;;;12.17;7.30;;;2.90;90.60;;;;;;5034212;28;20182;-79
2022/04/10 04:15:03;;;;;;;12.85;6.03;;;2.90;90.60;;;;;;5039053;28;20447;-78
2022/04/10 04:17:29;;;;;;;9.40;5.53;;;3.00;90.50;;;;;;5042473;28;20192;-78
2022/04/10 04:19:55;;;;;;;8.53;5.87;;;3.10;90.20;;;;;;5035207;28;20252;-79
2022/04/10 04:22:21;;;;;;;8.20;5.95;;;3.10;90.20;;;;;;5033982;28;21067;-78
2022/04/10 04:24:47;;;;;;;9.73;6.30;;;3.10;90.00;;;;;;5037970;28;20219;-79
2022/04/10 04:27:13;;;;;;;15.73;8.30;;;3.10;90.00;;;;;;5035199;28;20310;-78
2022/04/10 04:29:38;;;;;;;13.77;6.33;;;3.20;89.70;;;;;;5036865;28;21031;-78
2022/04/10 04:32:06;;;;;;;11.80;6.70;;;3.20;89.60;;;;;;5035977;28;20446;-77
2022/04/10 04:34:32;;;;;;;12.43;6.40;;;3.30;89.50;;;;;;5032367;28;20189;-79
2022/04/10 04:36:57;;;;;;;9.80;6.23;;;3.30;89.20;;;;;;5042740;28;20498;-78
2022/04/10 04:39:23;;;;;;;14.27;6.87;;;3.40;88.90;;;;;;5038848;28;20431;-79
2022/04/10 04:41:49;;;;;;;13.48;6.88;;;3.40;88.60;;;;;;5041835;28;20181;-77
2022/04/10 04:44:16;;;;;;;11.60;6.50;;;3.50;88.40;;;;;;5038653;28;20264;-77
2022/04/10 04:46:42;;;;;;;13.07;7.03;;;3.60;87.80;;;;;;5035314;28;20509;-78
2022/04/10 04:49:08;;;;;;;9.97;6.60;;;3.60;87.60;;;;;;5037854;28;20452;-79
2022/04/10 04:51:36;;;;;;;10.23;7.10;;;3.60;87.60;;;;;;5034260;28;20459;-79
2022/04/10 04:54:03;;;;;;;10.77;6.80;;;3.60;87.40;;;;;;5032096;28;20234;-78
2022/04/10 04:56:28;;;;;;;10.80;7.10;;;3.70;87.40;;;;;;5041906;28;20478;-78
2022/04/10 04:58:54;;;;;;;9.17;6.47;;;3.70;87.30;;;;;;5045887;28;20415;-78
2022/04/10 05:01:20;;;;;;;12.03;7.17;;;3.70;87.10;;;;;;5046244;28;20505;-78
2022/04/10 05:03:45;;;;;;;17.17;7.40;;;3.70;87.00;;;;;;5043674;28;20189;-78
2022/04/10 05:06:11;;;;;;;11.77;7.30;;;3.70;86.90;;;;;;5045214;28;20212;-79
2022/04/10 05:08:37;;;;;;;9.87;6.50;;;3.70;87.00;;;;;;5035355;28;20262;-76
2022/04/10 05:11:03;;;;;;;16.13;6.87;;;3.70;87.10;;;;;;5035206;28;20656;-78
2022/04/10 05:13:29;;;;;;;14.23;6.67;;;3.80;86.90;;;;;;5042143;28;20223;-77
2022/04/10 05:15:54;;;;;;;14.93;9.00;;;3.80;86.60;;;;;;5042421;28;20466;-78
2022/04/10 05:18:20;;;;;;;14.60;6.80;;;3.80;86.60;;;;;;5038513;28;20193;-79
2022/04/10 05:20:46;;;;;;;13.47;7.50;;;3.90;86.60;;;;;;5049385;28;20187;-78
2022/04/10 05:23:16;;;;;;;10.17;7.33;;;4.00;86.20;;;;;;5046244;28;20245;-77
2022/04/10 05:25:42;;;;;;;12.00;7.70;;;4.00;85.70;;;;;;5039397;28;20463;-79
2022/04/10 05:28:08;;;;;;;12.73;7.30;;;4.00;85.70;;;;;;5045536;28;20436;-78
2022/04/10 05:30:34;;;;;;;11.60;7.47;;;4.00;85.90;;;;;;5044190;28;20977;-79
2022/04/10 05:33:00;;;;;;;12.53;7.10;;;4.10;85.60;;;;;;5038885;28;20185;-78
2022/04/10 05:35:26;;;;;;;9.63;6.30;;;4.10;85.60;;;;;;5046038;28;20639;-77
2022/04/10 05:37:51;;;;;;;8.40;6.27;;;4.10;85.20;;;;;;5035458;28;20424;-78
2022/04/10 05:40:17;;;;;;;11.40;7.00;;;4.10;85.00;;;;;;5040760;28;20647;-78
2022/04/10 05:42:47;;;;;;;10.13;7.17;;;4.20;84.90;;;;;;5044426;28;20434;-79
2022/04/10 05:45:13;;;;;;;11.30;7.27;;;4.20;84.60;;;;;;5037209;28;20943;-78
2022/04/10 05:47:41;;;;;;;11.23;6.50;;;4.10;84.70;;;;;;5043407;28;20431;-78
2022/04/10 05:50:08;;;;;;;13.83;6.60;;;4.20;84.40;;;;;;5034754;28;20818;-78
2022/04/10 05:52:38;;;;;;;13.73;7.43;;;4.30;84.30;;;;;;5028999;28;20907;-79
2022/04/10 05:55:06;;;;;;;10.67;6.63;;;4.20;84.10;;;;;;5037850;28;20435;-79
2022/04/10 05:57:31;;;;;;;8.37;5.90;;;4.30;84.30;;;;;;5037606;28;20428;-79
2022/04/10 05:59:57;;;;;;;9.53;6.63;;;4.20;84.10;;;;;;5040107;28;20489;-79
2022/04/10 06:02:23;;;;;;;10.63;6.63;;;4.30;84.40;;;;;;5034375;28;20185;-78
2022/04/10 06:04:48;;;;;;;9.80;6.67;;;4.30;84.10;;;;;;5041536;28;20204;-78
2022/04/10 06:07:14;;;;;;;9.60;6.27;;;4.40;83.80;;;;;;5039609;28;20189;-78
2022/04/10 06:09:40;;;;;;;11.20;6.53;;;4.40;83.40;;;;;;5036511;28;20561;-78
2022/04/10 06:12:06;;;;;;;15.57;7.70;;;4.50;83.10;;;;;;5041270;28;20553;-77
2022/04/10 06:14:32;;;;;;;7.70;5.93;;;4.60;82.80;;;;;;5035044;28;20455;-78
2022/04/10 06:16:58;;;;;;;17.00;7.23;;;4.80;82.10;;;;;;5042397;28;20499;-79
2022/04/10 06:19:24;;;;;;;13.60;6.50;;;4.90;81.50;;;;;;5035203;28;20185;-78
2022/04/10 06:21:49;;;;;;;9.97;6.40;;;4.90;80.80;;;;;;5035931;28;20182;-79
2022/04/10 06:24:15;;;;;;;10.57;5.70;;;5.00;80.90;;;;;;5034852;28;20424;-78
2022/04/10 06:26:43;;;;;;;10.90;5.83;;;5.20;80.60;;;;;;5041308;28;20213;-78
2022/04/10 06:29:09;;;;;;;10.90;5.93;;;5.30;79.20;;;;;;5041163;28;20212;-77
2022/04/10 06:31:35;;;;;;;9.50;5.53;;;5.40;78.30;;;;;;5044422;28;20424;-78
2022/04/10 06:34:01;;;;;;;12.30;6.23;;;5.50;78.10;;;;;;5042654;28;20184;-77
2022/04/10 06:36:27;;;;;;;11.33;5.80;;;5.70;77.80;;;;;;5036127;28;20478;-77
2022/04/10 06:38:53;;;;;;;6.93;4.83;;;5.80;77.60;;;;;;5040798;28;20186;-79
2022/04/10 06:41:18;;;;;;;11.33;5.30;;;5.80;75.10;;;;;;5037907;28;20185;-78
2022/04/10 06:43:44;;;;;;;7.33;5.00;;;6.00;74.80;;;;;;5027965;28;20553;-79
2022/04/10 06:46:10;;;;;;;12.00;5.20;;;6.10;74.60;;;;;;5038874;28;20201;-78
2022/04/10 06:48:36;;;;;;;9.00;5.17;;;6.20;73.50;;;;;;5041859;28;20181;-78
2022/04/10 06:51:05;;;;;;;9.60;4.90;;;6.30;72.90;;;;;;5040403;28;20501;-79
2022/04/10 06:53:31;;;;;;;7.53;4.97;;;6.30;72.90;;;;;;5032674;28;20993;-78
2022/04/10 06:55:57;;;;;;;8.93;5.60;;;6.30;73.30;;;;;;5034498;28;20548;-80
2022/04/10 06:58:23;;;;;;;10.40;5.53;;;6.50;73.50;;;;;;5034444;28;20632;-77
2022/04/10 07:00:51;;;;;;;10.20;5.13;;;6.60;72.70;;;;;;5035997;28;20178;-80
2022/04/10 07:03:18;;;;;;;7.53;5.30;;;6.70;72.60;;;;;;5044351;28;20571;-80
2022/04/10 07:05:44;;;;;;;11.27;5.40;;;6.70;71.70;;;;;;5042516;28;20444;-77
2022/04/10 07:08:10;;;;;;;8.37;6.37;;;6.80;71.60;;;;;;5044071;28;20442;-79
2022/04/10 07:10:39;;;;;;;9.50;6.10;;;6.80;70.80;;;;;;5044869;28;20491;-79
2022/04/10 07:13:04;;;;;;;11.30;5.43;;;6.80;71.10;;;;;;5045529;28;20450;-78
2022/04/10 07:15:30;;;;;;;12.60;5.47;;;6.90;70.70;;;;;;5041052;28;20463;-76
2022/04/10 07:17:58;;;;;;;7.70;5.47;;;7.00;70.40;;;;;;5041478;28;20173;-79
2022/04/10 07:20:25;;;;;;;6.67;4.80;;;7.00;69.80;;;;;;5045061;28;20454;-79
2022/04/10 07:25:35;;;;;;;8.30;4.90;;;7.10;70.10;;;;;;5043632;28;20992;-78
2022/04/10 07:28:01;;;;;;;11.00;5.57;;;7.20;69.20;;;;;;5041369;28;20440;-79
2022/04/10 07:30:27;;;;;;;9.33;5.63;;;7.10;69.20;;;;;;5042315;28;20448;-79
2022/04/10 07:32:55;;;;;;;8.63;5.27;;;7.10;69.20;;;;;;5036438;28;20482;-78
2022/04/10 07:35:21;;;;;;;9.27;5.67;;;7.10;69.40;;;;;;5054490;28;20208;-78
2022/04/10 07:37:48;;;;;;;7.30;4.87;;;7.20;68.80;;;;;;5039835;28;20535;-79
2022/04/10 07:40:14;;;;;;;8.27;5.33;;;7.30;68.90;;;;;;5038754;28;20490;-79
2022/04/10 07:42:43;;;;;;;11.80;6.03;;;7.30;68.30;;;;;;5040834;28;20461;-78
2022/04/10 07:45:10;;;;;;;10.23;5.60;;;7.30;68.50;;;;;;5037191;28;20489;-77
2022/04/10 07:47:35;;;;;;;8.57;5.30;;;7.50;68.60;;;;;;5042402;28;20416;-79
2022/04/10 07:50:01;;;;;;;8.00;5.57;;;7.50;67.50;;;;;;5040189;28;20450;-78
2022/04/10 07:52:27;;;;;;;13.77;5.90;;;7.50;67.50;;;;;;5039467;28;20428;-78
2022/04/10 07:54:53;;;;;;;11.67;5.83;;;7.60;67.30;;;;;;5048336;28;20511;-79
2022/04/10 07:57:19;;;;;;;6.87;5.13;;;7.60;67.50;;;;;;5040716;28;20205;-78
2022/04/10 07:59:45;;;;;;;9.43;6.50;;;7.60;67.30;;;;;;5041349;28;20170;-78
2022/04/10 08:02:11;;;;;;;10.13;5.77;;;7.40;67.50;;;;;;5042305;28;20428;-79
2022/04/10 08:04:38;;;;;;;10.53;5.77;;;7.40;67.60;;;;;;5040601;28;20722;-77
2022/04/10 08:07:04;;;;;;;10.13;6.80;;;7.50;67.50;;;;;;5041831;28;20412;-78
2022/04/10 08:09:30;;;;;;;11.80;5.70;;;7.60;65.30;;;;;;5039373;28;20844;-79
2022/04/10 08:11:55;;;;;;;11.40;5.57;;;7.80;64.80;;;;;;5040286;28;20419;-78
2022/04/10 08:14:21;;;;;;;9.20;5.60;;;8.00;64.80;;;;;;5039759;28;20182;-79
2022/04/10 08:16:47;;;;;;;7.90;5.57;;;8.20;64.10;;;;;;5038537;28;20201;-79
2022/04/10 08:19:13;;;;;;;8.50;5.67;;;8.00;63.70;;;;;;5040306;28;20430;-77
2022/04/10 08:21:39;;;;;;;8.77;5.33;;;8.10;64.50;;;;;;5038990;28;20177;-78
2022/04/10 08:24:08;;;;;;;9.40;6.20;;;7.90;64.10;;;;;;5028597;28;20181;-79
2022/04/10 08:26:34;;;;;;;9.40;5.30;;;7.80;63.80;;;;;;5034272;28;20993;-79
2022/04/10 08:29:00;;;;;;;11.70;6.03;;;7.60;65.00;;;;;;5049567;28;20523;-77
2022/04/10 08:31:28;;;;;;;8.20;5.57;;;7.70;65.30;;;;;;5047585;28;20449;-79
2022/04/10 08:33:54;;;;;;;10.67;5.80;;;7.80;65.10;;;;;;5042156;28;20201;-78
2022/04/10 08:36:19;;;;;;;8.03;5.33;;;8.00;64.10;;;;;;5041716;28;20475;-79
2022/04/10 08:38:45;;;;;;;8.17;5.20;;;8.30;62.90;;;;;;5039419;28;20464;-78
2022/04/10 08:41:12;;;;;;;9.30;5.47;;;8.40;62.80;;;;;;5040113;28;21031;-78
2022/04/10 08:43:39;;;;;;;7.90;5.07;;;8.60;61.70;;;;;;5043795;28;20449;-79
2022/04/10 08:46:07;;;;;;;9.73;5.40;;;8.50;62.00;;;;;;5043305;28;20450;-78
2022/04/10 08:48:36;;;;;;;10.00;5.13;;;8.50;62.80;;;;;;5042437;28;20502;-78
2022/04/10 08:51:02;;;;;;;10.40;5.77;;;8.50;62.00;;;;;;5042792;28;20499;-79
2022/04/10 08:53:32;;;;;;;8.20;4.80;;;8.60;60.90;;;;;;5038950;28;20424;-79
2022/04/10 08:55:57;;;;;;;7.73;4.63;;;8.60;60.10;;;;;;5036490;28;20452;-77
2022/04/10 08:58:23;;;;;;;12.10;5.50;;;8.70;60.40;;;;;;5037823;28;20520;-77
2022/04/10 09:00:49;;;;;;;8.90;5.53;;;8.80;60.70;;;;;;5035549;28;20185;-79
2022/04/10 09:03:15;;;;;;;8.93;5.37;;;8.70;60.70;;;;;;5036165;28;20260;-77
2022/04/10 09:05:41;;;;;;;10.23;5.60;;;8.80;61.50;;;;;;5040258;28;20263;-78
2022/04/10 09:08:12;;;;;;;11.30;5.90;;;8.70;62.00;;;;;;5036564;28;20228;-79
2022/04/10 09:11:02;;;;;;;9.20;5.50;;;8.60;61.70;;;;;;5034773;28;20423;-77
2022/04/10 09:13:34;;;;;;;7.70;4.93;;;8.80;61.50;;;;;;5033693;28;20443;-78
2022/04/10 09:16:22;;;;;;;7.73;4.60;;;8.90;61.20;;;;;;5036021;28;20471;-79
2022/04/10 09:18:52;;;;;;;7.93;5.10;;;9.00;60.40;;;;;;5028679;28;20435;-78
2022/04/10 09:21:21;;;;;;;7.10;4.40;;;8.90;59.20;;;;;;5036870;28;20429;-78
2022/04/10 09:24:03;;;;;;;9.27;4.90;;;8.80;59.10;;;;;;5034638;28;20965;-78
2022/04/10 09:26:48;;;;;;;8.07;5.20;;;8.70;59.70;;;;;;5036533;28;20452;-79
2022/04/10 09:29:26;;;;;;;7.77;5.03;;;8.70;60.10;;;;;;5033787;28;20989;-79
2022/04/10 09:31:55;;;;;;;8.90;5.20;;;8.50;61.00;;;;;;5040294;28;20439;-80
2022/04/10 09:34:22;;;;;;;8.10;4.80;;;8.50;61.00;;;;;;5037592;28;20523;-78
2022/04/10 09:36:59;;;;;;;8.17;5.60;;;8.20;60.00;;;;;;5047280;28;20470;-78
2022/04/10 09:39:35;;;;;;;10.13;4.87;;;8.10;61.30;;;;;;5031336;28;20420;-79
2022/04/10 09:42:04;;;;;;;7.83;5.07;;;8.00;61.70;;;;;;5046182;28;20476;-78
2022/04/10 09:44:34;;;;;;;10.00;5.40;;;7.90;61.60;;;;;;5049338;28;20419;-78
2022/04/10 09:47:05;;;;;;;9.67;4.90;;;7.70;62.60;;;;;;5049317;28;20449;-79
2022/04/10 09:49:39;;;;;;;8.07;5.30;;;7.90;63.40;;;;;;5049829;28;20511;-78
2022/04/10 09:52:11;;;;;;;11.53;5.57;;;8.20;62.30;;;;;;5053243;28;20422;-80
2022/04/10 09:54:43;;;;;;;10.20;5.50;;;8.40;61.00;;;;;;5023195;28;20423;-77
2022/04/10 09:57:15;;;;;;;9.10;5.37;;;8.60;60.60;;;;;;5041154;28;20563;-81
2022/04/10 09:59:46;;;;;;;11.10;4.50;;;9.00;59.50;;;;;;5032997;28;20428;-80
2022/04/10 10:02:14;;;;;;;8.93;4.93;;;9.30;56.90;;;;;;5040441;28;20423;-79
2022/04/10 10:04:41;;;;;;;9.87;5.03;;;9.60;55.30;;;;;;5033317;28;20452;-78
2022/04/10 10:07:12;;;;;;;7.47;4.10;;;9.50;55.20;;;;;;5034463;28;20511;-79
2022/04/10 10:09:39;;;;;;;5.97;3.27;;;9.50;54.20;;;;;;5041382;28;20510;-78
2022/04/10 10:12:06;;;;;;;6.73;3.60;;;9.30;52.50;;;;;;5040359;28;20423;-79
2022/04/10 10:14:33;;;;;;;7.00;4.20;;;9.30;52.20;;;;;;5038114;28;20941;-79
2022/04/10 10:17:00;;;;;;;5.57;3.97;;;9.30;51.80;;;;;;5042622;28;20502;-79
2022/04/10 10:19:30;;;;;;;6.30;4.17;;;9.20;52.50;;;;;;5036297;28;20427;-79
2022/04/10 10:21:56;;;;;;;7.07;4.27;;;9.20;53.40;;;;;;5039179;28;20922;-78
2022/04/10 10:24:29;;;;;;;8.20;3.73;;;9.30;54.00;;;;;;5035040;28;20839;-79
2022/04/10 10:27:28;;;;;;;7.50;3.80;;;9.40;54.80;;;;;;5039652;28;20427;-78
2022/04/10 10:30:18;;;;;;;9.87;3.67;;;9.70;54.00;;;;;;5030104;28;20436;-79
2022/04/10 10:32:47;;;;;;;7.93;4.40;;;9.70;51.20;;;;;;5034400;28;20519;-79
2022/04/10 10:35:34;;;;;;;7.03;4.93;;;9.30;53.60;;;;;;5035985;28;20440;-79
2022/04/10 10:38:00;;;;;;;9.30;4.40;;;8.70;57.30;;;;;;5031962;28;20507;-79
2022/04/10 10:40:26;;;;;;;8.73;5.37;;;8.30;62.00;;;;;;5038161;28;20455;-80
2022/04/10 10:42:55;;;;;;;11.30;3.80;;;7.90;64.20;;;;;;5040313;28;20435;-79
2022/04/10 10:45:38;;;;;;;13.00;5.07;;;7.80;65.30;;;;;;5034388;28;20270;-78
2022/04/10 10:48:32;;;;;;;11.00;6.20;;;8.00;64.80;;;;;;5033534;28;20420;-77
2022/04/10 10:51:10;;;;;;;9.00;5.03;;;8.00;65.30;;;;;;5028904;28;20582;-79
2022/04/10 10:53:47;;;;;;;9.10;5.33;;;8.20;65.40;;;;;;5033825;28;20428;-78
2022/04/10 10:56:36;;;;;;;9.97;6.17;;;8.20;65.60;;;;;;5036089;28;20475;-78
2022/04/10 10:59:24;;;;;;;8.70;6.13;;;8.30;64.40;;;;;;5029117;28;20408;-78
2022/04/10 11:02:03;;;;;;;8.60;5.63;;;8.30;64.40;;;;;;5042454;28;20419;-79
2022/04/10 11:04:36;;;;;;;8.07;5.90;;;8.10;65.60;;;;;;5035560;28;20435;-78
2022/04/10 11:07:20;;;;;;;8.10;5.40;;;8.40;65.70;;;;;;5039062;28;20800;-76
2022/04/10 11:10:00;;;;;;;10.60;5.70;;;8.20;66.00;;;;;;5043053;28;20472;-76
2022/04/10 11:12:38;;;;;;;11.17;5.90;;;7.90;68.20;;;;;;5035224;28;20415;-78
2022/04/10 11:15:15;;;;;;;10.13;5.00;;;7.90;66.90;;;;;;5032528;28;20465;-78
2022/04/10 11:17:41;;;;;;;8.70;4.37;;;8.00;67.30;;;;;;5046709;28;20443;-78
2022/04/10 11:20:12;;;;;;;4.27;3.50;;;8.50;63.80;;;;;;5045401;28;20424;-77
2022/04/10 11:22:51;;;;;;;7.30;4.27;;;8.80;60.40;;;;;;5052923;28;20424;-78
2022/04/10 11:25:19;;;;;;;11.90;4.30;;;8.90;58.50;;;;;;5048067;28;20447;-78
2022/04/10 11:27:48;;;;;;;8.03;4.70;;;8.70;57.40;;;;;;5046421;28;20511;-79
2022/04/10 11:30:19;;;;;;;10.63;4.73;;;8.60;57.80;;;;;;5043817;28;20416;-78
2022/04/10 11:32:51;;;;;;;10.30;5.20;;;8.70;58.50;;;;;;5041304;28;20487;-77
2022/04/10 11:35:24;;;;;;;7.60;4.80;;;8.70;57.80;;;;;;5044221;28;20493;-77
2022/04/10 11:37:53;;;;;;;6.53;4.50;;;8.70;58.20;;;;;;5038303;28;20438;-78
2022/04/10 11:40:29;;;;;;;5.70;3.43;;;8.70;57.30;;;;;;5046497;28;20461;-78
2022/04/10 11:42:57;;;;;;;9.10;4.13;;;8.80;57.40;;;;;;5041546;28;20493;-78
2022/04/10 11:45:24;;;;;;;6.13;4.00;;;8.90;56.80;;;;;;5046024;28;20440;-77
2022/04/10 11:47:50;;;;;;;6.80;4.30;;;8.90;56.60;;;;;;5031933;28;20523;-77
2022/04/10 11:50:19;;;;;;;6.70;4.40;;;9.00;57.00;;;;;;5039502;28;20965;-77
2022/04/10 11:53:14;;;;;;;8.20;5.00;;;9.40;56.40;;;;;;5034848;28;20435;-78
2022/04/10 11:55:42;;;;;;;6.27;4.53;;;10.10;54.20;;;;;;5010191;28;20523;-78
2022/04/10 11:58:15;;;;;;;8.10;4.70;;;10.80;52.80;;;;;;5015467;28;20427;-77
2022/04/10 12:00:56;;;;;;;7.50;4.33;;;11.60;50.90;;;;;;5012964;28;20543;-78
2022/04/10 12:03:24;;;;;;;7.37;4.80;;;12.30;48.90;;;;;;5011140;28;21005;-78
2022/04/10 12:05:50;;;;;;;9.90;4.50;;;12.40;48.30;;;;;;4992374;28;20463;-78
2022/04/10 12:08:17;;;;;;;8.40;4.10;;;11.90;48.30;;;;;;4992374;28;20883;-77
2022/04/10 12:10:53;;;;;;;7.83;5.10;;;11.60;49.10;;;;;;4998718;28;20436;-76
2022/04/10 12:13:19;;;;;;;10.70;5.03;;;11.10;50.50;;;;;;5010291;28;20548;-77
2022/04/10 12:15:45;;;;;;;10.63;5.00;;;10.80;51.60;;;;;;5000475;28;20468;-76
2022/04/10 12:18:13;;;;;;;7.27;4.73;;;10.40;52.60;;;;;;5017038;28;20435;-77
2022/04/10 12:20:42;;;;;;;8.60;4.70;;;10.50;54.40;;;;;;4992901;28;20276;-77
2022/04/10 12:23:19;;;;;;;6.63;4.70;;;10.60;53.80;;;;;;5012626;28;20939;-77
2022/04/10 12:25:47;;;;;;;6.63;4.53;;;10.80;53.70;;;;;;5011047;28;20959;-77
2022/04/10 12:28:13;;;;;;;10.23;5.57;;;11.10;53.00;;;;;;5010188;28;20460;-78
2022/04/10 12:30:40;;;;;;;9.83;5.53;;;11.30;53.30;;;;;;5011854;28;20460;-78
2022/04/10 12:33:06;;;;;;;8.60;5.40;;;10.60;53.80;;;;;;5030024;28;20206;-77
2022/04/10 12:35:43;;;;;;;8.23;5.20;;;10.20;55.20;;;;;;5031556;28;20447;-78
2022/04/10 12:38:11;;;;;;;8.23;5.00;;;10.00;54.90;;;;;;5034880;28;21237;-78
2022/04/10 12:40:37;;;;;;;8.40;4.80;;;10.10;56.20;;;;;;5035026;28;20420;-78
2022/04/10 12:43:04;;;;;;;16.50;6.90;;;9.80;56.00;;;;;;5031277;28;20439;-78
2022/04/10 12:45:34;;;;;;;11.00;5.37;;;9.70;59.10;;;;;;5031166;28;20205;-78
2022/04/10 12:48:01;;;;;;;12.20;5.10;;;9.80;60.40;;;;;;5034807;28;20650;-76
2022/04/10 12:50:28;;;;;;;15.83;5.17;;;9.60;59.50;;;;;;5049390;28;20479;-78
2022/04/10 12:52:55;;;;;;;9.80;5.50;;;9.50;60.40;;;;;;5049347;28;20451;-77
2022/04/10 12:55:30;;;;;;;9.33;5.17;;;9.50;63.10;;;;;;5056624;28;20505;-76
2022/04/10 12:58:04;;;;;;;10.73;5.40;;;9.60;63.70;;;;;;5046378;28;20407;-77
2022/04/10 13:00:34;;;;;;;8.23;4.30;;;10.10;60.70;;;;;;5036911;28;20425;-77